默认 日期 大小 文件数 浏览量 最新下载 xml
25 01 25磁力链接相关资源由用户搜索指令自动获取,结果来源于网络,本站不存储任何资料,亦不承担任何责任,请于24小时内删除,搜索到24620个磁力,显示前4000条数据,用时43ms。
    {"Sample": {"sexo-nub-natasha-130125-sample.wmv": 29490195}, "RARBG.com.txt": 34, "sexo-nub-natasha-130125.nfo": 268, "sexo-nub-natasha-130125.wmv": 375474505}
创建时间: 2018-12-04 22:38:12 大小:386.2 MB 文件数量:4 热度:18 最近下载:2025-03-19 15:18:02
    {"0001.jpg": 2757587, "0002.jpg": 4068236, "0003.jpg": 4119567, "0004.jpg": 2480281, "0005.jpg": 2746770, "0006.jpg": 3210577, "0007.jpg": 3298015, "0008.jpg": 3184498, "0009.jpg": 2702807, "0010.jpg": 3234762, "0011.jpg": 3289972, "0012.jpg": 3345024, " ...
创建时间: 2018-12-04 22:40:28 大小:444.31 MB 文件数量:179 热度:19 最近下载:2025-10-03 03:17:03
    {"V.chas.pik.Novosti.(25.01.2011).XviD.SATRip.by.Suprug.avi": 504412160, "V.chas.pik.Podrobnosti.(25.01.2011).Charodei.XviD.SATRip.by.Suprug.avi": 314892288}
创建时间: 2018-12-05 01:22:51 大小:781.35 MB 文件数量:2 热度:12 最近下载:2025-08-03 06:08:02
    {"Zverushki.dobrushki.(01.seriya.iz.25).2010.XviD.DVDRip.RG ... Zverushki.dobrushki.(02.seriya.iz.25).2010.XviD.DVDRip.RG.torrents ... Zverushki.dobrushki.(03.seriya.iz.25).2010.XviD.DVDRip.RG. ... 54714368, "Zverushki.dobrushki.(25.seriya.iz.25).2010.XviD.DVDRip.RG ...
创建时间: 2018-12-05 01:24:09 大小:1.26 GB 文件数量:25 热度:8 最近下载:2025-03-19 15:19:02
    {"RARBG.com.txt": 34, "hoh.14.01.25.jasmine.jae.mp4": 2042857287, "hoh.14.01.25.jasmine.jae.nfo": 6980}
创建时间: 2018-12-05 03:01:04 大小:1.9 GB 文件数量:3 热度:27 最近下载:2025-09-12 16:50:02
    {"0001.jpg": 40922, "0002.jpg": 40922, "0003.jpg": 40922, "0004.jpg": 276906, "0005.jpg": 247740, "0006.jpg": 188700, "0007.jpg": 183730, "0008.jpg": 191506, "0009.jpg": 210042, "0010.jpg": 246887, "0011.jpg": 203286, "0012.jpg": 233642, "0013.jpg": 309500 ...
创建时间: 2018-12-05 03:09:58 大小:127.48 MB 文件数量:756 热度:17 最近下载:2025-03-19 15:19:02
    {"BrazzersExxtra.18.01.25.Nicolette.Shea.1.800.Phone.Sex.Line.5.XXX.SD.MP4-KLEENEX.mp4": 246529451}
创建时间: 2018-12-05 04:24:17 大小:235.11 MB 文件数量:1 热度:35 最近下载:2025-07-24 22:47:02
    {"RARBG.txt": 30, "fugli.nfo": 12227, "file_id.diz": 732, "80152001.jpg": 634045, "80152002.jpg": 886050, "80152003.jpg": 958446, "80152004.jpg": 890889, "80152005.jpg": 869679, "80152006.jpg": 739092, "80152007.jpg": 793572, "80152008.jpg": 813931, " ...
创建时间: 2018-12-05 05:32:06 大小:43.2 MB 文件数量:79 热度:20 最近下载:2025-10-03 11:17:04
    {"RARBG.txt": 30, "blacked.17.01.25.cadence.lux.and.anya.olsen.mp4": 4407807093, "blacked.17.01.25.cadence.lux.and.anya.olsen.nfo": 5195}
创建时间: 2018-12-05 05:40:49 大小:4.11 GB 文件数量:3 热度:229 最近下载:2025-10-17 23:44:02
    {"RARBG.txt": 30, "kow.17.01.25.delicia.dangelo.solo.1.mp4": 383988787, "kow.17.01.25.delicia.dangelo.solo.1.nfo": 5192}
创建时间: 2018-12-05 05:46:14 大小:366.21 MB 文件数量:3 热度:16 最近下载:2025-07-29 10:43:04
    {"RARBG.com.txt": 34, "ppu.15.01.25.taylor.sands.riding.dick.in.the.changing.room.mp4": 2754702559, "ppu.15.01.25.taylor.sands.riding.dick.in.the.changing.room.nfo": 7009}
创建时间: 2018-12-05 08:09:15 大小:2.57 GB 文件数量:3 热度:45 最近下载:2025-05-17 00:44:01
    {"tommy001.jpg": 551867, "tommy002.jpg": 562003, "tommy003.jpg": 572515, "tommy004.jpg": 589256, "tommy005.jpg": 787115, "tommy006.jpg": 715447, "tommy007.jpg": 667237, "tommy008.jpg": 699306, "tommy009.jpg": 643235, "tommy010.jpg": 691779, "tommy011.jpg": ...
创建时间: 2018-12-05 08:15:28 大小:67.06 MB 文件数量:111 热度:21 最近下载:2025-08-06 11:02:14
    ... .jpg": 467770, "ayya-female-power-01-10000px.jpg": 3599484, "ayya-female ... .jpg": 4692491, "ayya-female-power-25-10000px.jpg": 3992693, "ayya-female ...
创建时间: 2018-12-05 09:51:00 大小:262.34 MB 文件数量:70 热度:14 最近下载:2025-07-13 01:25:01
    {"RARBG.com.txt": 34, "pdmqfo.16.01.25.belle.claire.mp4": 1885550262, "pdmqfo.16.01.25.belle.claire.nfo": 5191}
创建时间: 2018-12-05 11:08:14 大小:1.76 GB 文件数量:3 热度:82 最近下载:2025-04-30 16:57:02
    {"PlumperPass.16.01.25.Alexxxis.Allure.And.Eliza.Allure.Pin-Up.Plumpers.XXX.1080p.MP4-KTR.mp4": 2795582886}
创建时间: 2018-12-05 12:08:08 大小:2.6 GB 文件数量:1 热度:33 最近下载:2025-10-14 15:29:03
    {"RARBG.com.txt": 34, "shefuckedher.16.01.25.rebecca.hilton.nfo": 5192, "shefuckedher.16.01.25.rebecca.hilton.wmv": 830772443}
创建时间: 2018-12-05 13:32:31 大小:792.29 MB 文件数量:3 热度:13 最近下载:2025-03-31 02:48:01
    {"_Frozendale_Pandora_Hearts_06_905C3B82_.avi": 161580372, "_Frozendale_Pandora_Hearts_07_54A1E2D5_.avi": 161736092, "_Frozendale_Pandora_Hearts_08_5B213E7D_.avi": 161705460, "_Frozendale_Pandora_Hearts_09_94148908_.avi": 161697850, " ...
创建时间: 2018-12-05 16:17:46 大小:3.76 GB 文件数量:25 热度:10 最近下载:2025-03-19 15:19:02
    {"[HorribleSubs] The iDOLM@STER - 01 [1080p].mkv": 579161869, "[HorribleSubs] The ... ": 580728736, "[HorribleSubs] The iDOLM@STER - 25 [1080p].mkv": 568088599}
创建时间: 2018-12-05 17:13:17 大小:13.49 GB 文件数量:25 热度:8 最近下载:2025-03-19 15:18:02
    {"[RH]Osomatsu_san[01][BIG5][720P].mp4": 350179688, "[RH] ... ][720P].mp4": 256278628, "[RH]Osomatsu_san[25][END[BIG5][720P].mp4": 331601832 ...
创建时间: 2018-12-05 22:00:42 大小:5.84 GB 文件数量:49 热度:9 最近下载:2025-03-19 15:20:03
    ... .flac": 53033674, "jgms1973-01-25t09.flac": 125640012, "jgms1973-01-25t10.flac": 87538439 ... .flac": 41461241, "jgms1973-01-25.late.txt": 4180, "jgms1973-01-25.late.sbd.mr ... .dat(48k).ffp": 798, "jgms1973-01-25.late.sbd.mr.dat(48k ...
创建时间: 2018-12-05 22:04:08 大小:520.42 MB 文件数量:19 热度:10 最近下载:2025-03-19 15:19:02